createdAt,value
2022-08-20T00:01:17.131Z,85.83
2022-08-20T00:04:14.489Z,85.98
2022-08-20T00:07:12.355Z,86.89
2022-08-20T00:10:09.978Z,86.79
2022-08-20T00:13:07.816Z,86.29
2022-08-20T00:16:05.575Z,85.95
2022-08-20T00:19:05.524Z,87.48
2022-08-20T00:22:03.101Z,88.68
2022-08-20T00:24:59.799Z,87.59
2022-08-20T00:27:57.650Z,88.11
2022-08-20T00:30:54.701Z,87.65
2022-08-20T00:33:52.357Z,87.77
2022-08-20T00:36:50.048Z,87.46
2022-08-20T00:39:47.105Z,87.34
2022-08-20T00:43:04.290Z,87.81
2022-08-20T00:46:04.198Z,88.65
2022-08-20T00:49:03.142Z,91.38
2022-08-20T00:52:07.566Z,93.89
2022-08-20T00:55:05.332Z,91.30
2022-08-20T00:58:09.005Z,90.66
2022-08-20T01:01:06.243Z,90.21
2022-08-20T01:04:02.958Z,90.54
2022-08-20T01:07:00.692Z,89.53
2022-08-20T01:09:59.522Z,88.99
2022-08-20T01:12:59.435Z,88.33
2022-08-20T01:15:57.266Z,88.72
2022-08-20T01:18:54.106Z,89.51
2022-08-20T01:21:52.011Z,89.90
2022-08-20T01:24:48.812Z,89.42
2022-08-20T01:27:45.754Z,89.05
2022-08-20T01:30:42.707Z,89.29
2022-08-20T01:33:40.543Z,89.80
2022-08-20T01:36:45.917Z,90.11
2022-08-20T01:39:44.927Z,90.27
2022-08-20T01:42:58.542Z,90.77
2022-08-20T01:45:57.165Z,91.46
2022-08-20T01:48:54.124Z,92.54
2022-08-20T01:51:52.497Z,92.04
2022-08-20T01:54:50.054Z,91.27
2022-08-20T01:57:48.493Z,90.85
2022-08-20T02:00:48.259Z,90.68
2022-08-20T02:03:45.266Z,92.26
2022-08-20T02:06:56.130Z,91.38
2022-08-20T02:09:55.267Z,91.27
2022-08-20T02:12:53.111Z,90.89
2022-08-20T02:15:50.923Z,90.71
2022-08-20T02:18:49.585Z,91.11
2022-08-20T02:21:49.791Z,90.68
2022-08-20T02:24:47.480Z,91.49
2022-08-20T02:27:46.035Z,91.56
2022-08-20T02:30:45.258Z,91.98
2022-08-20T02:33:42.418Z,91.94
2022-08-20T02:37:00.193Z,92.08
2022-08-20T02:39:57.437Z,92.11
2022-08-20T02:42:55.074Z,91.87
2022-08-20T02:45:52.285Z,92.08
2022-08-20T02:48:48.973Z,92.37
2022-08-20T02:51:47.157Z,92.48
2022-08-20T02:54:43.883Z,93.13
2022-08-20T02:57:41.210Z,98.11
2022-08-20T03:00:38.769Z,96.52
2022-08-20T03:03:36.059Z,96.57
2022-08-20T03:06:33.114Z,95.80
2022-08-20T03:09:30.337Z,94.95
2022-08-20T03:12:27.069Z,95.15
2022-08-20T03:15:24.017Z,94.44
2022-08-20T03:18:21.279Z,94.10
2022-08-20T03:21:18.369Z,94.20
2022-08-20T03:24:15.234Z,94.80
2022-08-20T03:27:13.665Z,95.42
2022-08-20T03:30:13.255Z,95.80
2022-08-20T03:33:10.508Z,95.53
2022-08-20T03:36:08.485Z,95.77
2022-08-20T03:39:07.112Z,95.94
2022-08-20T03:42:04.837Z,95.68
2022-08-20T03:45:08.890Z,95.57
2022-08-20T03:48:08.660Z,95.83
2022-08-20T03:51:07.135Z,96.33
2022-08-20T03:54:04.463Z,96.51
2022-08-20T03:57:02.933Z,96.63
2022-08-20T04:00:13.022Z,97.99
2022-08-20T04:03:10.415Z,97.56
2022-08-20T04:06:07.549Z,96.63
2022-08-20T04:09:06.041Z,96.53
2022-08-20T04:12:04.209Z,96.23
2022-08-20T04:15:01.053Z,96.70
2022-08-20T04:17:58.951Z,96.71
2022-08-20T04:20:56.286Z,96.83
2022-08-20T04:23:53.075Z,96.68
2022-08-20T04:26:49.906Z,96.89
2022-08-20T04:29:47.530Z,97.18
2022-08-20T04:32:45.468Z,97.30
2022-08-20T04:35:43.281Z,96.77
2022-08-20T04:38:48.393Z,97.16
2022-08-20T04:41:48.252Z,97.34
2022-08-20T04:44:45.282Z,97.73
2022-08-20T04:47:42.126Z,98.23
2022-08-20T04:50:39.789Z,98.66
2022-08-20T04:53:37.238Z,99.02
2022-08-20T04:56:38.737Z,99.03
2022-08-20T04:59:36.320Z,99.06
2022-08-20T05:02:33.035Z,100.00
2022-08-20T05:05:30.969Z,100.00
2022-08-20T05:08:28.179Z,100.00
2022-08-20T05:11:33.433Z,100.00
2022-08-20T05:14:33.257Z,100.00
2022-08-20T05:17:30.643Z,100.00
2022-08-20T05:20:32.138Z,100.00
2022-08-20T05:23:29.160Z,100.00
2022-08-20T05:26:26.576Z,100.00
2022-08-20T05:29:24.642Z,100.00
2022-08-20T05:32:22.483Z,100.00
2022-08-20T05:35:19.529Z,100.00
2022-08-20T05:38:18.129Z,100.00
2022-08-20T05:41:28.422Z,100.00
2022-08-20T05:44:27.138Z,100.00
2022-08-20T05:47:29.198Z,100.00
2022-08-20T05:50:33.242Z,100.00
2022-08-20T05:53:30.534Z,100.00
2022-08-20T05:56:30.565Z,100.00
2022-08-20T05:59:28.986Z,100.00
2022-08-20T06:02:44.640Z,100.00
2022-08-20T06:05:42.385Z,100.00
2022-08-20T06:08:38.934Z,100.00
2022-08-20T06:11:37.435Z,100.00
2022-08-20T06:14:35.383Z,100.00
2022-08-20T06:17:39.401Z,100.00
2022-08-20T06:20:38.158Z,100.00
2022-08-20T06:23:56.488Z,100.00
2022-08-20T06:27:14.379Z,100.00
2022-08-20T06:30:12.346Z,100.00
2022-08-20T06:33:09.341Z,100.00
2022-08-20T06:36:07.155Z,100.00
2022-08-20T06:39:04.194Z,100.00
2022-08-20T06:42:01.109Z,100.00
2022-08-20T06:44:59.707Z,100.00
2022-08-20T06:47:58.970Z,100.00
2022-08-20T06:50:56.586Z,100.00
2022-08-20T06:53:53.280Z,100.00
2022-08-20T06:56:50.198Z,100.00
2022-08-20T06:59:54.318Z,100.00
2022-08-20T07:02:51.324Z,100.00
2022-08-20T07:05:48.493Z,100.00
2022-08-20T07:08:45.379Z,100.00
2022-08-20T07:11:42.293Z,100.00
2022-08-20T07:14:39.573Z,100.00
2022-08-20T07:17:37.118Z,100.00
2022-08-20T07:20:36.006Z,100.00
2022-08-20T07:23:33.247Z,100.00
2022-08-20T07:26:30.086Z,100.00
2022-08-20T07:29:47.658Z,100.00
2022-08-20T07:32:45.660Z,100.00
2022-08-20T07:35:49.052Z,100.00
2022-08-20T07:38:47.464Z,100.00
2022-08-20T07:41:51.571Z,100.00
2022-08-20T07:44:54.162Z,100.00
2022-08-20T07:47:53.632Z,100.00
2022-08-20T07:50:50.427Z,100.00
2022-08-20T07:53:47.736Z,100.00
2022-08-20T07:56:45.280Z,98.10
2022-08-20T07:59:42.551Z,97.35
2022-08-20T08:02:40.151Z,97.03
2022-08-20T08:05:39.123Z,96.84
2022-08-20T08:08:37.003Z,97.02
2022-08-20T08:11:35.466Z,95.05
2022-08-20T08:14:32.737Z,94.03
2022-08-20T08:17:31.887Z,92.64
2022-08-20T08:20:29.526Z,95.31
2022-08-20T08:23:31.661Z,95.61
2022-08-20T08:26:29.589Z,96.03
2022-08-20T08:29:26.666Z,96.37
2022-08-20T08:32:24.631Z,94.13
2022-08-20T08:35:22.874Z,97.38
2022-08-20T08:38:22.501Z,93.49
2022-08-20T08:41:20.333Z,93.93
2022-08-20T08:44:23.282Z,93.28
2022-08-20T08:47:26.502Z,91.10
2022-08-20T08:50:49.866Z,92.04
2022-08-20T08:53:48.684Z,91.99
2022-08-20T08:56:50.099Z,91.12
2022-08-20T09:00:12.272Z,89.20
2022-08-20T09:03:11.389Z,92.60
2022-08-20T09:06:08.538Z,91.58
2022-08-20T09:09:05.397Z,87.69
2022-08-20T09:12:11.790Z,89.06
2022-08-20T09:15:10.034Z,86.48
2022-08-20T09:18:07.998Z,86.27
2022-08-20T09:21:06.405Z,84.65
2022-08-20T09:24:04.882Z,84.68
2022-08-20T09:27:02.487Z,82.82
2022-08-20T09:29:59.459Z,84.32
2022-08-20T09:32:59.401Z,83.24
2022-08-20T09:35:56.357Z,80.11
2022-08-20T09:38:53.643Z,79.59
2022-08-20T09:41:50.409Z,79.47
2022-08-20T09:44:47.503Z,79.98
2022-08-20T09:48:01.928Z,78.21
2022-08-20T09:50:59.473Z,79.46
2022-08-20T09:53:57.308Z,80.76
2022-08-20T09:56:56.254Z,78.19
2022-08-20T09:59:57.128Z,75.87
2022-08-20T10:02:54.659Z,74.96
2022-08-20T10:05:51.485Z,76.83
2022-08-20T10:08:48.955Z,77.14
2022-08-20T10:11:46.702Z,74.39
2022-08-20T10:14:43.573Z,73.51
2022-08-20T10:17:41.396Z,73.46
2022-08-20T10:20:38.751Z,72.82
2022-08-20T10:23:36.484Z,73.61
2022-08-20T10:26:33.475Z,73.36
2022-08-20T10:29:30.479Z,73.83
2022-08-20T10:32:27.720Z,74.76
2022-08-20T10:35:24.970Z,71.92
2022-08-20T10:38:22.379Z,71.37
2022-08-20T10:41:19.993Z,70.28
2022-08-20T10:44:17.813Z,71.15
2022-08-20T10:47:15.459Z,68.46
2022-08-20T10:50:14.957Z,66.80
2022-08-20T10:53:13.108Z,66.23
2022-08-20T10:56:15.038Z,66.57
2022-08-20T10:59:12.501Z,68.47
2022-08-20T11:02:09.632Z,65.17
2022-08-20T11:05:06.593Z,64.60
2022-08-20T11:08:04.200Z,62.13
2022-08-20T11:11:01.420Z,62.92
2022-08-20T11:13:58.364Z,64.25
2022-08-20T11:16:56.298Z,60.97
2022-08-20T11:19:53.973Z,62.90
2022-08-20T11:22:52.154Z,59.52
2022-08-20T11:25:49.645Z,61.10
2022-08-20T11:28:46.370Z,60.95
2022-08-20T11:31:43.503Z,61.51
2022-08-20T11:34:40.724Z,61.87
2022-08-20T11:37:38.214Z,60.81
2022-08-20T11:40:35.351Z,61.51
2022-08-20T11:43:32.326Z,59.11
2022-08-20T11:46:29.921Z,60.17
2022-08-20T11:49:27.273Z,59.43
2022-08-20T11:52:24.659Z,57.62
2022-08-20T11:55:28.983Z,59.26
2022-08-20T11:58:27.265Z,57.20
2022-08-20T12:01:24.763Z,57.04
2022-08-20T12:04:21.885Z,61.02
2022-08-20T12:07:23.845Z,59.10
2022-08-20T12:10:23.241Z,58.61
2022-08-20T12:13:20.795Z,60.42
2022-08-20T12:16:22.573Z,60.71
2022-08-20T12:19:19.753Z,59.32
2022-08-20T12:22:24.418Z,58.74
2022-08-20T12:25:22.432Z,56.85
2022-08-20T12:28:23.008Z,56.34
2022-08-20T12:31:23.590Z,57.35
2022-08-20T12:34:20.729Z,57.02
2022-08-20T12:37:19.613Z,57.14
2022-08-20T12:40:22.705Z,55.24
2022-08-20T12:43:28.021Z,55.96
2022-08-20T12:46:25.794Z,55.58
2022-08-20T12:49:22.403Z,56.53
2022-08-20T12:52:20.227Z,57.08
2022-08-20T12:55:18.866Z,57.05
2022-08-20T12:58:16.964Z,55.99
2022-08-20T13:01:15.818Z,55.80
2022-08-20T13:04:12.696Z,55.31
2022-08-20T13:07:11.574Z,58.97
2022-08-20T13:10:10.501Z,58.94
2022-08-20T13:13:07.932Z,58.14
2022-08-20T13:16:04.708Z,54.56
2022-08-20T13:19:01.930Z,57.34
2022-08-20T13:21:59.073Z,54.40
2022-08-20T13:24:56.601Z,53.81
2022-08-20T13:27:57.309Z,56.08
2022-08-20T13:30:54.907Z,59.20
2022-08-20T13:33:54.475Z,57.41
2022-08-20T13:36:51.517Z,56.78
2022-08-20T13:39:49.352Z,56.75
2022-08-20T13:42:46.728Z,56.08
2022-08-20T13:45:43.951Z,56.47
2022-08-20T13:48:40.389Z,55.03
2022-08-20T13:51:37.497Z,55.43
2022-08-20T13:54:34.463Z,54.36
2022-08-20T13:57:32.640Z,56.51
2022-08-20T14:00:31.819Z,54.83
2022-08-20T14:03:29.753Z,52.85
2022-08-20T14:06:26.679Z,52.63
2022-08-20T14:09:23.814Z,52.91
2022-08-20T14:12:23.114Z,53.57
2022-08-20T14:15:20.684Z,49.76
2022-08-20T14:18:17.592Z,49.54
2022-08-20T14:21:14.628Z,51.28
2022-08-20T14:24:11.877Z,52.11
2022-08-20T14:27:09.960Z,51.22
2022-08-20T14:30:08.937Z,49.16
2022-08-20T14:33:05.679Z,48.51
2022-08-20T14:36:02.888Z,50.12
2022-08-20T14:38:59.516Z,49.37
2022-08-20T14:41:57.173Z,49.69
2022-08-20T14:44:58.842Z,50.31
2022-08-20T14:47:59.747Z,49.77
2022-08-20T14:50:56.481Z,50.08
2022-08-20T14:53:53.952Z,50.56
2022-08-20T14:56:50.972Z,51.73
2022-08-20T14:59:47.941Z,50.03
2022-08-20T15:02:45.554Z,50.95
2022-08-20T15:05:42.782Z,50.52
2022-08-20T15:08:41.871Z,50.73
2022-08-20T15:11:40.913Z,49.42
2022-08-20T15:14:39.109Z,50.39
2022-08-20T15:17:36.825Z,48.99
2022-08-20T15:20:34.816Z,50.87
2022-08-20T15:23:31.622Z,50.07
2022-08-20T15:26:29.661Z,50.14
2022-08-20T15:29:26.665Z,50.39
2022-08-20T15:32:23.523Z,50.17
2022-08-20T15:35:20.578Z,50.84
2022-08-20T15:38:17.501Z,49.06
2022-08-20T15:41:14.927Z,49.79
2022-08-20T15:44:12.052Z,48.59
2022-08-20T15:47:43.972Z,50.33
2022-08-20T15:51:00.653Z,49.60
2022-08-20T15:54:18.172Z,48.13
2022-08-20T15:57:41.102Z,48.93
2022-08-20T16:01:24.259Z,48.29
2022-08-20T16:04:31.330Z,49.49
2022-08-20T16:07:53.797Z,47.93
2022-08-20T16:11:28.962Z,48.07
2022-08-20T16:14:27.421Z,49.56
2022-08-20T16:17:31.737Z,49.61
2022-08-20T16:20:35.974Z,48.74
2022-08-20T16:23:33.601Z,49.23
2022-08-20T16:26:59.595Z,48.57
2022-08-20T16:30:08.723Z,48.28
2022-08-20T16:33:12.710Z,49.04
2022-08-20T16:36:23.785Z,49.39
2022-08-20T16:39:27.855Z,49.25
2022-08-20T16:42:24.971Z,48.64
2022-08-20T16:45:25.500Z,49.09
2022-08-20T16:48:22.880Z,49.30
2022-08-20T16:51:51.980Z,48.02
2022-08-20T16:54:49.876Z,49.06
2022-08-20T16:57:47.861Z,48.37
2022-08-20T17:00:45.627Z,48.19
2022-08-20T17:03:49.862Z,48.92
2022-08-20T17:06:48.351Z,48.59
2022-08-20T17:09:48.738Z,49.36
2022-08-20T17:13:03.711Z,51.08
2022-08-20T17:16:02.746Z,50.01
2022-08-20T17:19:11.679Z,50.52
2022-08-20T17:22:09.827Z,49.94
2022-08-20T17:25:30.878Z,49.95
2022-08-20T17:28:30.828Z,50.34
2022-08-20T17:31:38.915Z,50.05
2022-08-20T17:34:50.436Z,49.63
2022-08-20T17:37:51.228Z,51.04
2022-08-20T17:40:50.658Z,52.11
2022-08-20T17:43:47.709Z,52.38
2022-08-20T17:46:46.282Z,51.59
2022-08-20T17:50:02.319Z,50.44
2022-08-20T17:53:05.333Z,51.48
2022-08-20T17:56:28.934Z,51.25
2022-08-20T17:59:59.932Z,49.73
2022-08-20T18:02:45.624Z,51.09
2022-08-20T18:05:42.638Z,49.49
2022-08-20T18:09:17.326Z,49.89
2022-08-20T18:12:24.234Z,51.27
2022-08-20T18:15:40.907Z,53.34
2022-08-20T18:18:56.700Z,55.74
2022-08-20T18:22:04.280Z,54.23
2022-08-20T18:25:07.536Z,53.28
2022-08-20T18:28:38.377Z,56.28
2022-08-20T18:31:49.716Z,57.23
2022-08-20T18:34:48.251Z,57.30
2022-08-20T18:37:45.591Z,56.70
2022-08-20T18:40:43.325Z,56.50
2022-08-20T18:43:41.198Z,56.32
2022-08-20T18:46:54.226Z,55.85
2022-08-20T18:50:05.300Z,55.12
2022-08-20T18:53:11.146Z,55.73
2022-08-20T18:56:14.550Z,58.26
2022-08-20T18:59:17.793Z,59.57
2022-08-20T19:02:26.845Z,60.96
2022-08-20T19:05:33.225Z,61.86
2022-08-20T19:08:59.468Z,61.52
2022-08-20T19:12:02.992Z,63.19
2022-08-20T19:15:32.002Z,63.47
2022-08-20T19:18:43.071Z,62.16
2022-08-20T19:21:42.824Z,62.84
2022-08-20T19:24:44.240Z,64.28
2022-08-20T19:27:41.041Z,64.00
2022-08-20T19:30:39.926Z,60.21
2022-08-20T19:33:43.857Z,62.60
2022-08-20T19:36:43.094Z,63.26
2022-08-20T19:39:42.340Z,64.82
2022-08-20T19:42:43.204Z,66.87
2022-08-20T19:45:51.736Z,67.86
2022-08-20T19:49:20.492Z,66.90
2022-08-20T19:52:31.255Z,68.01
2022-08-20T19:55:33.549Z,68.14
2022-08-20T19:58:31.683Z,68.18
2022-08-20T20:01:29.395Z,69.23
2022-08-20T20:04:29.745Z,70.64
2022-08-20T20:07:29.516Z,71.74
2022-08-20T20:10:32.297Z,73.13
2022-08-20T20:13:37.720Z,74.00
2022-08-20T20:16:37.518Z,75.30
2022-08-20T20:19:47.852Z,74.59
2022-08-20T20:23:15.175Z,74.46
2022-08-20T20:26:15.055Z,74.03
2022-08-20T20:29:13.759Z,74.88
2022-08-20T20:32:20.569Z,73.81
2022-08-20T20:35:30.207Z,74.95
2022-08-20T20:38:28.060Z,74.65
2022-08-20T20:41:26.391Z,76.21
2022-08-20T20:44:38.196Z,76.99
2022-08-20T20:47:36.020Z,75.34
2022-08-20T20:50:36.742Z,75.29
2022-08-20T20:53:51.659Z,74.09
2022-08-20T20:57:03.137Z,71.87
2022-08-20T21:00:00.261Z,72.44
2022-08-20T21:02:57.038Z,73.32
2022-08-20T21:05:57.101Z,74.60
2022-08-20T21:08:56.040Z,75.69
2022-08-20T21:11:53.058Z,76.06
2022-08-20T21:14:50.199Z,76.28
2022-08-20T21:17:47.178Z,76.83
2022-08-20T21:20:44.059Z,78.19
2022-08-20T21:23:41.649Z,78.50
2022-08-20T21:26:39.170Z,78.25
2022-08-20T21:29:35.978Z,77.16
2022-08-20T21:32:33.183Z,76.73
2022-08-20T21:35:30.088Z,77.72
2022-08-20T21:38:28.254Z,77.80
2022-08-20T21:41:30.033Z,78.39
2022-08-20T21:44:29.696Z,80.45
2022-08-20T21:47:27.322Z,83.05
2022-08-20T21:50:24.723Z,82.46
2022-08-20T21:53:22.104Z,82.53
2022-08-20T21:56:19.339Z,79.90
2022-08-20T21:59:17.193Z,81.74
2022-08-20T22:02:13.881Z,82.71
2022-08-20T22:05:11.514Z,81.65
2022-08-20T22:08:09.375Z,81.91
2022-08-20T22:11:07.656Z,83.13
2022-08-20T22:14:09.131Z,82.45
2022-08-20T22:17:06.428Z,82.90
2022-08-20T22:20:05.260Z,84.28
2022-08-20T22:23:05.482Z,84.34
2022-08-20T22:26:03.335Z,84.64
2022-08-20T22:29:01.471Z,85.26
2022-08-20T22:31:59.214Z,84.81
2022-08-20T22:34:56.356Z,84.81
2022-08-20T22:37:53.117Z,84.31
2022-08-20T22:40:50.207Z,84.60
2022-08-20T22:43:56.546Z,83.90
2022-08-20T22:46:57.123Z,83.81
2022-08-20T22:49:54.428Z,80.15
2022-08-20T22:52:52.203Z,76.00
2022-08-20T22:55:48.980Z,75.21
2022-08-20T22:58:46.320Z,78.09
2022-08-20T23:01:47.245Z,79.58
2022-08-20T23:04:44.094Z,81.88
2022-08-20T23:07:41.724Z,81.57
2022-08-20T23:10:39.121Z,80.17
2022-08-20T23:13:36.617Z,82.49
2022-08-20T23:16:42.696Z,84.24
2022-08-20T23:19:41.635Z,84.21
2022-08-20T23:22:39.339Z,82.62
2022-08-20T23:25:36.230Z,83.49
2022-08-20T23:28:33.260Z,83.00
2022-08-20T23:31:30.011Z,84.08
2022-08-20T23:34:27.582Z,85.24
2022-08-20T23:37:25.865Z,85.61
2022-08-20T23:40:26.886Z,86.21
2022-08-20T23:43:25.286Z,87.38
2022-08-20T23:46:22.237Z,88.41
2022-08-20T23:49:19.078Z,89.65
2022-08-20T23:52:16.304Z,90.28
2022-08-20T23:55:12.962Z,87.47
2022-08-20T23:58:10.189Z,83.30
